Terminal Aerodrome Forecast
Issued by NWS Atlanta, GA

Home | Current Version | Previous Version | Text Only | Print | Product List | Glossary On
Versions: 1 2 3 4 5 6 7 8 9 10 11 12 13 14 15 16 17 18 19 20 21 22 23 24 25 26 27 28 29 30 31 32 33 34 35 36 37
926
FTUS42 KFFC 260053 AAA
TAFATL
TAF AMD
KATL 260053Z 2601/2706 22007KT P6SM VCSH SCT070
      TEMPO 2601/2602 VRB12G22KT 5SM SHRA BKN045
     FM260200 23004KT P6SM SCT100
     FM261600 22006KT P6SM SCT045 PROB30 2619/2623 4SM -TSRA BR
      BKN035CB=

USA.gov is the U.S. government's official web portal to all federal, state and local government web resources and services.